F/V Challenger — FIOS — position and weather

sailwx.info

Track history (hours):
 
Tides and Currents Weather Stations Pressure Air Temp Water Temp Dewpoint Dewpoint Depression Visibility Wind Speed Wind Dir Waves Ship Positions

F/V Challenger

Last reported at 2017-Nov-19 17:35 UTC. Time now 2017-Nov-20 00:32 UTC.
Position N 46°11' W 001°56'.

Length 17 m.

Type: Fishing. MMSI: 228120000.

Date/timePositionNaut miles runAvg speedWind from/ knotsBaromVisibWave heightAir tempDewpointWater temp
2017-Nov-19 17:35N 46°11' W 001°56'0 3.3
2017-Nov-19 17:30N 46°12' W 001°55'5 0.8
2017-Nov-19 11:22N 46°07' W 001°52'5 2.8
2017-Nov-19 09:37N 46°12' W 001°55'0 2.9
2017-Nov-19 09:30N 46°12' W 001°55'2 4.0
2017-Nov-19 09:01N 46°14' W 001°55'5 9.1
2017-Nov-19 08:30N 46°17' W 001°50'4 8.7
2017-Nov-19 08:00N 46°21' W 001°48'4 9.0
2017-Nov-19 07:30N 46°25' W 001°47'4 8.5
2017-Nov-19 07:00N 46°30' W 001°48'0 0.7
2017-Nov-19 06:30N 46°30' W 001°47'0 0.0
2017-Nov-17 18:28N 46°30' W 001°47'0 0.0
2017-Nov-17 18:01N 46°30' W 001°47'0 0.0
2017-Nov-17 17:30N 46°30' W 001°47'0 0.0
2017-Nov-17 17:01N 46°30' W 001°47'0 0.0
2017-Nov-17 16:30N 46°30' W 001°47'0 0.0
2017-Nov-17 16:00N 46°30' W 001°47'0 0.0
2017-Nov-17 15:30N 46°30' W 001°47'0 0.0
2017-Nov-17 15:01N 46°30' W 001°47'0 0.0
2017-Nov-17 14:30N 46°30' W 001°47'0 0.0
2017-Nov-17 14:00N 46°30' W 001°47'0 0.0
2017-Nov-17 13:30N 46°30' W 001°47'0 0.0
2017-Nov-17 13:00N 46°30' W 001°47'0 0.0
2017-Nov-17 12:31N 46°30' W 001°47'0 0.0
2017-Nov-17 12:00N 46°30' W 001°47'0 0.0
2017-Nov-17 11:30N 46°30' W 001°47'0 0.0
2017-Nov-17 11:01N 46°30' W 001°47'0 0.0
2017-Nov-17 10:30N 46°30' W 001°47'0 0.0
2017-Nov-17 10:00N 46°30' W 001°47'0 0.0
2017-Nov-17 09:30N 46°30' W 001°47'0 0.0
2017-Nov-17 09:00N 46°30' W 001°47'0 0.0
2017-Nov-17 08:30N 46°30' W 001°47'0 0.0
2017-Nov-17 08:00N 46°30' W 001°47'0 0.0
2017-Nov-17 07:30N 46°30' W 001°47'0 0.0
2017-Nov-17 07:00N 46°30' W 001°47'0 0.0
2017-Nov-17 06:30N 46°30' W 001°47'0 0.0
2017-Nov-17 06:00N 46°30' W 001°47'0 0.0
2017-Nov-17 05:30N 46°30' W 001°47'0 0.0
2017-Nov-17 05:00N 46°30' W 001°47'0 0.0
2017-Nov-17 04:30N 46°30' W 001°47'0 0.0
2017-Nov-17 04:00N 46°30' W 001°47'0 0.0
2017-Nov-17 03:30N 46°30' W 001°47'0 0.0
2017-Nov-17 03:00N 46°30' W 001°47'0 0.0
2017-Nov-17 02:30N 46°30' W 001°47'0 0.0
2017-Nov-17 02:01N 46°30' W 001°47'0 0.0
2017-Nov-17 01:30N 46°30' W 001°47'0 0.1
2017-Nov-17 01:01N 46°30' W 001°47'0 0.0
2017-Nov-17 00:31N 46°30' W 001°47'2 3.4
2017-Nov-17 00:01N 46°28' W 001°47'4 8.8
2017-Nov-16 23:30N 46°24' W 001°50'4 8.3
2017-Nov-16 23:00N 46°20' W 001°53'5 7.8
2017-Nov-16 22:25N 46°16' W 001°56'1 2.4
2017-Nov-16 22:00N 46°15' W 001°56'1 2.3
2017-Nov-16 21:30N 46°14' W 001°57'2 3.0
2017-Nov-16 21:00N 46°15' W 001°59'1 2.9
2017-Nov-16 20:30N 46°15' W 002°01'1 2.9
2017-Nov-16 20:00N 46°16' W 002°02'2 3.0
2017-Nov-16 19:15N 46°18' W 002°04'1 3.0
2017-Nov-16 18:58N 46°19' W 002°05'1 2.9
2017-Nov-16 18:31N 46°20' W 002°06'1 2.9
2017-Nov-16 18:00N 46°21' W 002°08'2 3.4
2017-Nov-16 17:18N 46°22' W 002°10'0 1.4
2017-Nov-16 17:00N 46°23' W 002°11'2 2.8
2017-Nov-16 16:23N 46°21' W 002°09'1 3.6
2017-Nov-16 16:00N 46°20' W 002°08'1 1.6
2017-Nov-16 15:22N 46°20' W 002°06'1 3.1
2017-Nov-16 15:00N 46°21' W 002°07'2 3.2
2017-Nov-16 14:28N 46°22' W 002°09'2 3.2
2017-Nov-16 13:53N 46°24' W 002°10'2 2.0
2017-Nov-16 12:51N 46°25' W 002°13'1 3.0
2017-Nov-16 12:27N 46°24' W 002°11'1 3.0
2017-Nov-16 12:00N 46°24' W 002°10'1 3.0
2017-Nov-16 11:30N 46°22' W 002°09'1 3.0
2017-Nov-16 11:01N 46°21' W 002°07'2 3.0
2017-Nov-16 10:28N 46°20' W 002°06'3 3.1
2017-Nov-16 09:36N 46°18' W 002°04'0 3.3
2017-Nov-16 09:28N 46°17' W 002°04'1 3.1
2017-Nov-16 09:01N 46°16' W 002°02'1 2.7
2017-Nov-16 08:31N 46°18' W 002°03'2 3.0
2017-Nov-16 08:00N 46°19' W 002°03'2 3.1
2017-Nov-16 07:30N 46°18' W 002°02'2 3.3
2017-Nov-16 07:00N 46°17' W 002°01'2 3.2
2017-Nov-16 06:29N 46°15' W 001°59'1 2.8
2017-Nov-16 06:01N 46°14' W 001°60'1 2.8
2017-Nov-16 05:30N 46°15' W 002°01'1 2.7
2017-Nov-16 05:00N 46°16' W 002°02'2 2.9
2017-Nov-16 04:27N 46°17' W 002°03'1 2.9
2017-Nov-16 04:00N 46°18' W 002°02'2 3.1
2017-Nov-16 03:30N 46°16' W 002°00'2 3.0
2017-Nov-16 02:54N 46°15' W 001°59'1 2.9
2017-Nov-16 02:29N 46°14' W 001°60'1 2.9
2017-Nov-16 02:00N 46°13' W 002°01'2 3.0
2017-Nov-16 01:30N 46°11' W 002°03'2 2.4
2017-Nov-16 00:50N 46°10' W 002°04'1 3.2
2017-Nov-16 00:24N 46°10' W 002°02'1 2.0
2017-Nov-15 23:51N 46°10' W 002°01'2 2.6
2017-Nov-15 23:06N 46°09' W 002°04'0 3.0
2017-Nov-15 22:59N 46°09' W 002°04'2 2.7
2017-Nov-15 22:12N 46°10' W 002°02'2 1.7
2017-Nov-15 21:05N 46°10' W 002°04'0 1.6
2017-Nov-15 21:00N 46°10' W 002°04'1 2.7
2017-Nov-15 20:30N 46°10' W 002°02'1 2.8
2017-Nov-15 20:00N 46°11' W 002°01'2 3.0
2017-Nov-15 19:30N 46°13' W 002°01'1 2.8
2017-Nov-15 19:01N 46°14' W 002°01'2 2.8
2017-Nov-15 18:20N 46°16' W 002°03'2 2.9
2017-Nov-15 17:45N 46°17' W 002°04'2 3.2
2017-Nov-15 17:12N 46°19' W 002°05'1 2.7
2017-Nov-15 16:44N 46°20' W 002°05'1 2.9
2017-Nov-15 16:31N 46°21' W 002°06'2 3.1
2017-Nov-15 16:00N 46°22' W 002°07'1 1.3
2017-Nov-15 15:24N 46°23' W 002°06'1 2.8
2017-Nov-15 14:59N 46°22' W 002°05'2 2.8
2017-Nov-15 14:22N 46°20' W 002°04'1 1.7
2017-Nov-15 13:41N 46°21' W 002°06'1 3.1
2017-Nov-15 13:30N 46°21' W 002°06'2 3.1
2017-Nov-15 13:00N 46°22' W 002°07'2 3.2
2017-Nov-15 12:28N 46°24' W 002°08'2 3.1
2017-Nov-15 11:56N 46°25' W 002°10'1 2.2
2017-Nov-15 11:27N 46°24' W 002°11'2 3.0
2017-Nov-15 10:55N 46°23' W 002°10'1 3.0
2017-Nov-15 10:30N 46°22' W 002°09'2 3.0
2017-Nov-15 10:00N 46°20' W 002°08'2 3.0
2017-Nov-15 09:30N 46°19' W 002°09'2 3.4
2017-Nov-15 09:00N 46°19' W 002°11'4 7.7
2017-Nov-15 08:29N 46°17' W 002°17'2 3.3
2017-Nov-15 08:00N 46°15' W 002°17'1 2.1
2017-Nov-15 07:24N 46°15' W 002°19'1 3.0
2017-Nov-15 07:00N 46°16' W 002°20'2 3.0
2017-Nov-15 06:30N 46°17' W 002°19'2 3.2
2017-Nov-15 05:53N 46°19' W 002°17'1 3.3
2017-Nov-15 05:26N 46°20' W 002°15'2 3.4
2017-Nov-15 04:57N 46°21' W 002°14'2 5.5
2017-Nov-15 04:30N 46°23' W 002°12'1 2.7
2017-Nov-15 03:58N 46°24' W 002°10'2 2.9
2017-Nov-15 03:13N 46°21' W 002°10'1 2.9
2017-Nov-15 02:59N 46°21' W 002°10'1 2.4
2017-Nov-15 02:25N 46°20' W 002°11'1 3.2
2017-Nov-15 01:58N 46°22' W 002°12'2 3.3
2017-Nov-15 01:26N 46°24' W 002°12'1 2.9
2017-Nov-15 00:56N 46°25' W 002°10'3 6.8
2017-Nov-15 00:29N 46°24' W 002°06'4 8.8
2017-Nov-15 00:00N 46°26' W 001°60'5 9.1
2017-Nov-14 23:30N 46°27' W 001°54'5 9.0
2017-Nov-14 23:00N 46°28' W 001°48'1 3.0
2017-Nov-14 22:31N 46°30' W 001°48'0 0.0
2017-Nov-14 22:00N 46°30' W 001°48'1 1.6
2017-Nov-14 21:31N 46°29' W 001°47'4 8.2
2017-Nov-14 21:00N 46°27' W 001°52'4 8.8
2017-Nov-14 20:30N 46°25' W 001°58'4 8.2
2017-Nov-14 20:01N 46°24' W 002°04'2 3.8
2017-Nov-14 19:31N 46°23' W 002°06'2 3.1
2017-Nov-14 19:00N 46°22' W 002°08'2 3.0
2017-Nov-14 18:28N 46°23' W 002°10'1 3.1
2017-Nov-14 17:58N 46°25' W 002°10'2 2.8
2017-Nov-14 17:23N 46°24' W 002°09'1 3.1
2017-Nov-14 16:57N 46°23' W 002°08'1 2.0
2017-Nov-14 16:14N 46°21' W 002°08'1 3.0
2017-Nov-14 15:49N 46°22' W 002°10'2 3.0
2017-Nov-14 15:13N 46°24' W 002°11'1 3.2
2017-Nov-14 14:48N 46°25' W 002°10'1 2.8
2017-Nov-14 14:30N 46°25' W 002°09'2 2.9
2017-Nov-14 13:57N 46°23' W 002°08'2 3.1
2017-Nov-14 13:21N 46°22' W 002°07'1 2.5
2017-Nov-14 13:00N 46°22' W 002°08'2 3.4
2017-Nov-14 12:30N 46°23' W 002°10'2 3.2
2017-Nov-14 11:50N 46°25' W 002°10'1 2.6
2017-Nov-14 11:29N 46°25' W 002°09'2 2.6
2017-Nov-14 10:53N 46°24' W 002°08'1 3.0
2017-Nov-14 10:30N 46°23' W 002°08'2 3.1
2017-Nov-14 10:00N 46°21' W 002°07'1 2.4
2017-Nov-14 09:30N 46°22' W 002°08'2 3.3
2017-Nov-14 08:55N 46°23' W 002°10'2 2.1
2017-Nov-14 08:11N 46°25' W 002°09'1 3.0
2017-Nov-14 08:00N 46°24' W 002°09'2 3.0
2017-Nov-14 07:30N 46°23' W 002°08'2 2.3
2017-Nov-14 06:47N 46°21' W 002°08'1 3.0
2017-Nov-14 06:30N 46°22' W 002°09'2 3.2
2017-Nov-14 05:58N 46°23' W 002°10'1 2.8
2017-Nov-14 05:27N 46°25' W 002°11'1 2.7
2017-Nov-14 05:00N 46°24' W 002°09'2 3.1
2017-Nov-14 04:30N 46°23' W 002°08'2 2.3
2017-Nov-14 03:49N 46°21' W 002°08'1 2.4
2017-Nov-14 03:30N 46°22' W 002°09'1 2.9
2017-Nov-14 03:00N 46°23' W 002°10'2 1.8
2017-Nov-14 02:04N 46°25' W 002°09'0 2.9
2017-Nov-14 02:00N 46°25' W 002°09'1 2.9
2017-Nov-14 01:31N 46°23' W 002°08'1 2.9
2017-Nov-14 01:00N 46°22' W 002°07'1 2.0
2017-Nov-14 00:30N 46°22' W 002°08'2 3.3
2017-Nov-14 00:00N 46°23' W 002°09'2 3.3
2017-Nov-13 23:17N 46°25' W 002°11'2 3.4
2017-Nov-13 22:42N 46°27' W 002°13'1 3.2
2017-Nov-13 22:27N 46°27' W 002°14'2 2.7
2017-Nov-13 21:39N 46°25' W 002°13'2 0.1
2017-Nov-13 01:49N 46°24' W 002°12'1 2.4
2017-Nov-13 01:24N 46°23' W 002°11'1 2.4
2017-Nov-13 00:59N 46°22' W 002°10'2 2.9
2017-Nov-13 00:27N 46°22' W 002°08'1 3.2
2017-Nov-13 00:00N 46°23' W 002°06'4 7.8
2017-Nov-12 23:30N 46°24' W 002°01'4 8.4
2017-Nov-12 23:00N 46°26' W 001°55'4 8.2
2017-Nov-12 22:30N 46°28' W 001°50'2 4.7
2017-Nov-12 22:00N 46°30' W 001°48'0 0.6
2017-Nov-12 21:30N 46°30' W 001°48'0 0.5
2017-Nov-12 21:00N 46°30' W 001°47'0 0.0
2017-Nov-12 20:31N 46°30' W 001°47'2 3.7
2017-Nov-12 20:01N 46°28' W 001°48'4 8.7
2017-Nov-12 19:30N 46°28' W 001°54'4 8.4
2017-Nov-12 19:00N 46°27' W 002°00'4 8.1
2017-Nov-12 18:30N 46°26' W 002°06'3 6.4
2017-Nov-12 18:00N 46°26' W 002°11'2 3.7
2017-Nov-12 17:29N 46°26' W 002°13'2 3.2
2017-Nov-12 17:00N 46°27' W 002°15'2 2.8
2017-Nov-12 16:13N 46°28' W 002°18'7 2.0
2017-Nov-12 12:59N 46°23' W 002°13'1 2.5
2017-Nov-12 12:27N 46°24' W 002°12'3 3.2
2017-Nov-12 11:25N 46°27' W 002°14'2 3.2
2017-Nov-12 10:42N 46°28' W 002°15'1 3.1
2017-Nov-12 10:31N 46°29' W 002°16'2 3.2
2017-Nov-12 10:00N 46°30' W 002°18'4 1.9
2017-Nov-12 08:04N 46°26' W 002°17'0 2.4
2017-Nov-12 07:56N 46°26' W 002°17'1 2.3
2017-Nov-12 07:30N 46°26' W 002°16'1 2.3
2017-Nov-12 06:59N 46°27' W 002°15'2 3.1
2017-Nov-12 06:27N 46°29' W 002°16'1 3.3
2017-Nov-12 06:00N 46°30' W 002°17'2 3.0
2017-Nov-12 05:22N 46°29' W 002°20'0 0.2
2017-Nov-12 04:05N 46°29' W 002°20'0 3.2
2017-Nov-12 04:01N 46°29' W 002°20'1 2.3
2017-Nov-12 03:31N 46°30' W 002°18'1 2.4
2017-Nov-12 03:00N 46°29' W 002°17'2 2.5
2017-Nov-12 02:10N 46°28' W 002°15'1 2.5
2017-Nov-12 01:51N 46°27' W 002°15'2 2.1
2017-Nov-12 00:53N 46°26' W 002°17'4 3.2
2017-Nov-11 23:40N 46°29' W 002°21'1 3.2
2017-Nov-11 23:29N 46°30' W 002°21'1 2.3
2017-Nov-11 22:57N 46°31' W 002°19'1 2.2
2017-Nov-11 22:23N 46°30' W 002°18'1 2.4
2017-Nov-11 22:01N 46°29' W 002°17'2 2.3
2017-Nov-11 21:17N 46°28' W 002°15'1 2.2
2017-Nov-11 21:00N 46°28' W 002°15'1 2.2
2017-Nov-11 20:30N 46°27' W 002°14'1 3.0
2017-Nov-11 20:00N 46°27' W 002°17'2 3.0
2017-Nov-11 19:28N 46°28' W 002°19'2 3.2
2017-Nov-11 18:58N 46°29' W 002°20'2 2.6
2017-Nov-11 18:12N 46°31' W 002°21'1 2.2
2017-Nov-11 17:47N 46°31' W 002°19'1 2.1
2017-Nov-11 17:29N 46°30' W 002°18'1 2.4
2017-Nov-11 17:00N 46°30' W 002°17'2 2.3
2017-Nov-11 16:21N 46°28' W 002°16'1 2.2
2017-Nov-11 15:57N 46°28' W 002°15'1 1.7
2017-Nov-11 15:28N 46°27' W 002°14'1 2.5
2017-Nov-11 15:00N 46°27' W 002°15'2 3.1
2017-Nov-11 14:22N 46°27' W 002°18'2 3.1
2017-Nov-11 13:53N 46°28' W 002°20'2 2.4
2017-Nov-11 12:54N 46°31' W 002°20'1 2.6
2017-Nov-11 12:29N 46°30' W 002°19'1 2.5
2017-Nov-11 11:56N 46°30' W 002°17'1 2.4
2017-Nov-11 11:30N 46°29' W 002°16'1 2.1
2017-Nov-11 10:56N 46°28' W 002°15'1 2.3
2017-Nov-11 10:28N 46°27' W 002°14'1 2.5
2017-Nov-11 10:00N 46°27' W 002°16'2 3.1
2017-Nov-11 09:27N 46°27' W 002°18'3 2.1
2017-Nov-11 07:51N 46°31' W 002°20'1 2.2
2017-Nov-11 07:25N 46°30' W 002°18'1 2.6
2017-Nov-11 07:01N 46°29' W 002°18'3 1.1
2017-Nov-11 04:06N 46°32' W 002°20'3 2.5
2017-Nov-11 03:06N 46°30' W 002°18'0 2.6
2017-Nov-11 02:59N 46°30' W 002°18'1 2.7
2017-Nov-11 02:30N 46°29' W 002°17'2 1.7
2017-Nov-11 01:26N 46°28' W 002°18'1 3.1
2017-Nov-11 00:59N 46°29' W 002°20'2 0.8
2017-Nov-10 22:36N 46°31' W 002°18'0 2.6
2017-Nov-10 22:30N 46°30' W 002°18'1 2.5
2017-Nov-10 22:00N 46°29' W 002°17'2 0.5
2017-Nov-10 18:17N 46°31' W 002°18'1 2.7
2017-Nov-10 17:59N 46°30' W 002°18'2 0.9
2017-Nov-10 15:52N 46°29' W 002°20'2 1.2
2017-Nov-10 13:56N 46°31' W 002°18'1 2.6
2017-Nov-10 13:28N 46°30' W 002°17'1 2.3
2017-Nov-10 13:00N 46°29' W 002°16'1 2.1
2017-Nov-10 12:28N 46°28' W 002°15'1 2.7
2017-Nov-10 12:00N 46°29' W 002°14'2 3.0
2017-Nov-10 11:30N 46°31' W 002°14'2 1.1
2017-Nov-10 09:37N 46°33' W 002°13'0 2.8
2017-Nov-10 09:27N 46°32' W 002°12'1 3.0
2017-Nov-10 09:00N 46°32' W 002°11'2 3.5
2017-Nov-10 08:30N 46°33' W 002°11'2 3.0
2017-Nov-10 07:58N 46°35' W 002°13'1 1.3
2017-Nov-10 07:05N 46°34' W 002°13'0 2.9
2017-Nov-10 06:57N 46°33' W 002°13'1 2.9
2017-Nov-10 06:30N 46°32' W 002°12'1 2.7
2017-Nov-10 06:00N 46°31' W 002°11'1 2.8
2017-Nov-10 05:30N 46°31' W 002°09'1 2.8
2017-Nov-10 05:00N 46°30' W 002°07'2 4.2
2017-Nov-10 04:30N 46°30' W 002°04'4 8.9
2017-Nov-10 04:00N 46°28' W 001°58'4 8.9
2017-Nov-10 03:30N 46°28' W 001°52'3 6.1
2017-Nov-10 03:00N 46°30' W 001°48'  
Track history (hours):
 
Tides and Currents Weather Stations Pressure Air Temp Water Temp Dewpoint Dewpoint Depression Visibility Wind Speed Wind Dir Waves Ship Positions

F/V Challenger

Last reported at 2017-Nov-19 17:35 UTC. Time now 2017-Nov-20 00:32 UTC.
Position N 46°11' W 001°56'.

Length 17 m.

Type: Fishing. MMSI: 228120000.

Date/timePositionNaut miles runAvg speedWind from/ knotsBaromVisibWave heightAir tempDewpointWater temp
2017-Nov-19 17:35N 46°11' W 001°56'0 3.3
2017-Nov-19 17:30N 46°12' W 001°55'5 0.8
2017-Nov-19 11:22N 46°07' W 001°52'5 2.8
2017-Nov-19 09:37N 46°12' W 001°55'0 2.9
2017-Nov-19 09:30N 46°12' W 001°55'2 4.0
2017-Nov-19 09:01N 46°14' W 001°55'5 9.1
2017-Nov-19 08:30N 46°17' W 001°50'4 8.7
2017-Nov-19 08:00N 46°21' W 001°48'4 9.0
2017-Nov-19 07:30N 46°25' W 001°47'4 8.5
2017-Nov-19 07:00N 46°30' W 001°48'0 0.7
2017-Nov-19 06:30N 46°30' W 001°47'0 0.0
2017-Nov-17 18:28N 46°30' W 001°47'0 0.0
2017-Nov-17 18:01N 46°30' W 001°47'0 0.0
2017-Nov-17 17:30N 46°30' W 001°47'0 0.0
2017-Nov-17 17:01N 46°30' W 001°47'0 0.0
2017-Nov-17 16:30N 46°30' W 001°47'0 0.0
2017-Nov-17 16:00N 46°30' W 001°47'0 0.0
2017-Nov-17 15:30N 46°30' W 001°47'0 0.0
2017-Nov-17 15:01N 46°30' W 001°47'0 0.0
2017-Nov-17 14:30N 46°30' W 001°47'0 0.0
2017-Nov-17 14:00N 46°30' W 001°47'0 0.0
2017-Nov-17 13:30N 46°30' W 001°47'0 0.0
2017-Nov-17 13:00N 46°30' W 001°47'0 0.0
2017-Nov-17 12:31N 46°30' W 001°47'0 0.0
2017-Nov-17 12:00N 46°30' W 001°47'0 0.0
2017-Nov-17 11:30N 46°30' W 001°47'0 0.0
2017-Nov-17 11:01N 46°30' W 001°47'0 0.0
2017-Nov-17 10:30N 46°30' W 001°47'0 0.0
2017-Nov-17 10:00N 46°30' W 001°47'0 0.0
2017-Nov-17 09:30N 46°30' W 001°47'0 0.0
2017-Nov-17 09:00N 46°30' W 001°47'0 0.0
2017-Nov-17 08:30N 46°30' W 001°47'0 0.0
2017-Nov-17 08:00N 46°30' W 001°47'0 0.0
2017-Nov-17 07:30N 46°30' W 001°47'0 0.0
2017-Nov-17 07:00N 46°30' W 001°47'0 0.0
2017-Nov-17 06:30N 46°30' W 001°47'0 0.0
2017-Nov-17 06:00N 46°30' W 001°47'0 0.0
2017-Nov-17 05:30N 46°30' W 001°47'0 0.0
2017-Nov-17 05:00N 46°30' W 001°47'0 0.0
2017-Nov-17 04:30N 46°30' W 001°47'0 0.0
2017-Nov-17 04:00N 46°30' W 001°47'0 0.0
2017-Nov-17 03:30N 46°30' W 001°47'0 0.0
2017-Nov-17 03:00N 46°30' W 001°47'0 0.0
2017-Nov-17 02:30N 46°30' W 001°47'0 0.0
2017-Nov-17 02:01N 46°30' W 001°47'0 0.0
2017-Nov-17 01:30N 46°30' W 001°47'0 0.1
2017-Nov-17 01:01N 46°30' W 001°47'0 0.0
2017-Nov-17 00:31N 46°30' W 001°47'2 3.4
2017-Nov-17 00:01N 46°28' W 001°47'4 8.8
2017-Nov-16 23:30N 46°24' W 001°50'4 8.3
2017-Nov-16 23:00N 46°20' W 001°53'5 7.8
2017-Nov-16 22:25N 46°16' W 001°56'1 2.4
2017-Nov-16 22:00N 46°15' W 001°56'1 2.3
2017-Nov-16 21:30N 46°14' W 001°57'2 3.0
2017-Nov-16 21:00N 46°15' W 001°59'1 2.9
2017-Nov-16 20:30N 46°15' W 002°01'1 2.9
2017-Nov-16 20:00N 46°16' W 002°02'2 3.0
2017-Nov-16 19:15N 46°18' W 002°04'1 3.0
2017-Nov-16 18:58N 46°19' W 002°05'1 2.9
2017-Nov-16 18:31N 46°20' W 002°06'1 2.9
2017-Nov-16 18:00N 46°21' W 002°08'2 3.4
2017-Nov-16 17:18N 46°22' W 002°10'0 1.4
2017-Nov-16 17:00N 46°23' W 002°11'2 2.8
2017-Nov-16 16:23N 46°21' W 002°09'1 3.6
2017-Nov-16 16:00N 46°20' W 002°08'1 1.6
2017-Nov-16 15:22N 46°20' W 002°06'1 3.1
2017-Nov-16 15:00N 46°21' W 002°07'2 3.2
2017-Nov-16 14:28N 46°22' W 002°09'2 3.2
2017-Nov-16 13:53N 46°24' W 002°10'2 2.0
2017-Nov-16 12:51N 46°25' W 002°13'1 3.0
2017-Nov-16 12:27N 46°24' W 002°11'1 3.0
2017-Nov-16 12:00N 46°24' W 002°10'1 3.0
2017-Nov-16 11:30N 46°22' W 002°09'1 3.0
2017-Nov-16 11:01N 46°21' W 002°07'2 3.0
2017-Nov-16 10:28N 46°20' W 002°06'3 3.1
2017-Nov-16 09:36N 46°18' W 002°04'0 3.3
2017-Nov-16 09:28N 46°17' W 002°04'1 3.1
2017-Nov-16 09:01N 46°16' W 002°02'1 2.7
2017-Nov-16 08:31N 46°18' W 002°03'2 3.0
2017-Nov-16 08:00N 46°19' W 002°03'2 3.1
2017-Nov-16 07:30N 46°18' W 002°02'2 3.3
2017-Nov-16 07:00N 46°17' W 002°01'2 3.2
2017-Nov-16 06:29N 46°15' W 001°59'1 2.8
2017-Nov-16 06:01N 46°14' W 001°60'1 2.8
2017-Nov-16 05:30N 46°15' W 002°01'1 2.7
2017-Nov-16 05:00N 46°16' W 002°02'2 2.9
2017-Nov-16 04:27N 46°17' W 002°03'1 2.9
2017-Nov-16 04:00N 46°18' W 002°02'2 3.1
2017-Nov-16 03:30N 46°16' W 002°00'2 3.0
2017-Nov-16 02:54N 46°15' W 001°59'1 2.9
2017-Nov-16 02:29N 46°14' W 001°60'1 2.9
2017-Nov-16 02:00N 46°13' W 002°01'2 3.0
2017-Nov-16 01:30N 46°11' W 002°03'2 2.4
2017-Nov-16 00:50N 46°10' W 002°04'1 3.2
2017-Nov-16 00:24N 46°10' W 002°02'1 2.0
2017-Nov-15 23:51N 46°10' W 002°01'2 2.6
2017-Nov-15 23:06N 46°09' W 002°04'0 3.0
2017-Nov-15 22:59N 46°09' W 002°04'2 2.7
2017-Nov-15 22:12N 46°10' W 002°02'2 1.7
2017-Nov-15 21:05N 46°10' W 002°04'0 1.6
2017-Nov-15 21:00N 46°10' W 002°04'1 2.7
2017-Nov-15 20:30N 46°10' W 002°02'1 2.8
2017-Nov-15 20:00N 46°11' W 002°01'2 3.0
2017-Nov-15 19:30N 46°13' W 002°01'1 2.8
2017-Nov-15 19:01N 46°14' W 002°01'2 2.8
2017-Nov-15 18:20N 46°16' W 002°03'2 2.9
2017-Nov-15 17:45N 46°17' W 002°04'2 3.2
2017-Nov-15 17:12N 46°19' W 002°05'1 2.7
2017-Nov-15 16:44N 46°20' W 002°05'1 2.9
2017-Nov-15 16:31N 46°21' W 002°06'2 3.1
2017-Nov-15 16:00N 46°22' W 002°07'1 1.3
2017-Nov-15 15:24N 46°23' W 002°06'1 2.8
2017-Nov-15 14:59N 46°22' W 002°05'2 2.8
2017-Nov-15 14:22N 46°20' W 002°04'1 1.7
2017-Nov-15 13:41N 46°21' W 002°06'1 3.1
2017-Nov-15 13:30N 46°21' W 002°06'2 3.1
2017-Nov-15 13:00N 46°22' W 002°07'2 3.2
2017-Nov-15 12:28N 46°24' W 002°08'2 3.1
2017-Nov-15 11:56N 46°25' W 002°10'1 2.2
2017-Nov-15 11:27N 46°24' W 002°11'2 3.0
2017-Nov-15 10:55N 46°23' W 002°10'1 3.0
2017-Nov-15 10:30N 46°22' W 002°09'2 3.0
2017-Nov-15 10:00N 46°20' W 002°08'2 3.0
2017-Nov-15 09:30N 46°19' W 002°09'2 3.4
2017-Nov-15 09:00N 46°19' W 002°11'4 7.7
2017-Nov-15 08:29N 46°17' W 002°17'2 3.3
2017-Nov-15 08:00N 46°15' W 002°17'1 2.1
2017-Nov-15 07:24N 46°15' W 002°19'1 3.0
2017-Nov-15 07:00N 46°16' W 002°20'2 3.0
2017-Nov-15 06:30N 46°17' W 002°19'2 3.2
2017-Nov-15 05:53N 46°19' W 002°17'1 3.3
2017-Nov-15 05:26N 46°20' W 002°15'2 3.4
2017-Nov-15 04:57N 46°21' W 002°14'2 5.5
2017-Nov-15 04:30N 46°23' W 002°12'1 2.7
2017-Nov-15 03:58N 46°24' W 002°10'2 2.9
2017-Nov-15 03:13N 46°21' W 002°10'1 2.9
2017-Nov-15 02:59N 46°21' W 002°10'1 2.4
2017-Nov-15 02:25N 46°20' W 002°11'1 3.2
2017-Nov-15 01:58N 46°22' W 002°12'2 3.3
2017-Nov-15 01:26N 46°24' W 002°12'1 2.9
2017-Nov-15 00:56N 46°25' W 002°10'3 6.8
2017-Nov-15 00:29N 46°24' W 002°06'4 8.8
2017-Nov-15 00:00N 46°26' W 001°60'5 9.1
2017-Nov-14 23:30N 46°27' W 001°54'5 9.0
2017-Nov-14 23:00N 46°28' W 001°48'1 3.0
2017-Nov-14 22:31N 46°30' W 001°48'0 0.0
2017-Nov-14 22:00N 46°30' W 001°48'1 1.6
2017-Nov-14 21:31N 46°29' W 001°47'4 8.2
2017-Nov-14 21:00N 46°27' W 001°52'4 8.8
2017-Nov-14 20:30N 46°25' W 001°58'4 8.2
2017-Nov-14 20:01N 46°24' W 002°04'2 3.8
2017-Nov-14 19:31N 46°23' W 002°06'2 3.1
2017-Nov-14 19:00N 46°22' W 002°08'2 3.0
2017-Nov-14 18:28N 46°23' W 002°10'1 3.1
2017-Nov-14 17:58N 46°25' W 002°10'2 2.8
2017-Nov-14 17:23N 46°24' W 002°09'1 3.1
2017-Nov-14 16:57N 46°23' W 002°08'1 2.0
2017-Nov-14 16:14N 46°21' W 002°08'1 3.0
2017-Nov-14 15:49N 46°22' W 002°10'2 3.0
2017-Nov-14 15:13N 46°24' W 002°11'1 3.2
2017-Nov-14 14:48N 46°25' W 002°10'1 2.8
2017-Nov-14 14:30N 46°25' W 002°09'2 2.9
2017-Nov-14 13:57N 46°23' W 002°08'2 3.1
2017-Nov-14 13:21N 46°22' W 002°07'1 2.5
2017-Nov-14 13:00N 46°22' W 002°08'2 3.4
2017-Nov-14 12:30N 46°23' W 002°10'2 3.2
2017-Nov-14 11:50N 46°25' W 002°10'1 2.6
2017-Nov-14 11:29N 46°25' W 002°09'2 2.6
2017-Nov-14 10:53N 46°24' W 002°08'1 3.0
2017-Nov-14 10:30N 46°23' W 002°08'2 3.1
2017-Nov-14 10:00N 46°21' W 002°07'1 2.4
2017-Nov-14 09:30N 46°22' W 002°08'2 3.3
2017-Nov-14 08:55N 46°23' W 002°10'2 2.1
2017-Nov-14 08:11N 46°25' W 002°09'1 3.0
2017-Nov-14 08:00N 46°24' W 002°09'2 3.0
2017-Nov-14 07:30N 46°23' W 002°08'2 2.3
2017-Nov-14 06:47N 46°21' W 002°08'1 3.0
2017-Nov-14 06:30N 46°22' W 002°09'2 3.2
2017-Nov-14 05:58N 46°23' W 002°10'1 2.8
2017-Nov-14 05:27N 46°25' W 002°11'1 2.7
2017-Nov-14 05:00N 46°24' W 002°09'2 3.1
2017-Nov-14 04:30N 46°23' W 002°08'2 2.3
2017-Nov-14 03:49N 46°21' W 002°08'1 2.4
2017-Nov-14 03:30N 46°22' W 002°09'1 2.9
2017-Nov-14 03:00N 46°23' W 002°10'2 1.8
2017-Nov-14 02:04N 46°25' W 002°09'0 2.9
2017-Nov-14 02:00N 46°25' W 002°09'1 2.9
2017-Nov-14 01:31N 46°23' W 002°08'1 2.9
2017-Nov-14 01:00N 46°22' W 002°07'1 2.0
2017-Nov-14 00:30N 46°22' W 002°08'2 3.3
2017-Nov-14 00:00N 46°23' W 002°09'2 3.3
2017-Nov-13 23:17N 46°25' W 002°11'2 3.4
2017-Nov-13 22:42N 46°27' W 002°13'1 3.2
2017-Nov-13 22:27N 46°27' W 002°14'2 2.7
2017-Nov-13 21:39N 46°25' W 002°13'2 0.1
2017-Nov-13 01:49N 46°24' W 002°12'1 2.4
2017-Nov-13 01:24N 46°23' W 002°11'1 2.4
2017-Nov-13 00:59N 46°22' W 002°10'2 2.9
2017-Nov-13 00:27N 46°22' W 002°08'1 3.2
2017-Nov-13 00:00N 46°23' W 002°06'4 7.8
2017-Nov-12 23:30N 46°24' W 002°01'4 8.4
2017-Nov-12 23:00N 46°26' W 001°55'4 8.2
2017-Nov-12 22:30N 46°28' W 001°50'2 4.7
2017-Nov-12 22:00N 46°30' W 001°48'0 0.6
2017-Nov-12 21:30N 46°30' W 001°48'0 0.5
2017-Nov-12 21:00N 46°30' W 001°47'0 0.0
2017-Nov-12 20:31N 46°30' W 001°47'2 3.7
2017-Nov-12 20:01N 46°28' W 001°48'4 8.7
2017-Nov-12 19:30N 46°28' W 001°54'4 8.4
2017-Nov-12 19:00N 46°27' W 002°00'4 8.1
2017-Nov-12 18:30N 46°26' W 002°06'3 6.4
2017-Nov-12 18:00N 46°26' W 002°11'2 3.7
2017-Nov-12 17:29N 46°26' W 002°13'2 3.2
2017-Nov-12 17:00N 46°27' W 002°15'2 2.8
2017-Nov-12 16:13N 46°28' W 002°18'7 2.0
2017-Nov-12 12:59N 46°23' W 002°13'1 2.5
2017-Nov-12 12:27N 46°24' W 002°12'3 3.2
2017-Nov-12 11:25N 46°27' W 002°14'2 3.2
2017-Nov-12 10:42N 46°28' W 002°15'1 3.1
2017-Nov-12 10:31N 46°29' W 002°16'2 3.2
2017-Nov-12 10:00N 46°30' W 002°18'4 1.9
2017-Nov-12 08:04N 46°26' W 002°17'0 2.4
2017-Nov-12 07:56N 46°26' W 002°17'1 2.3
2017-Nov-12 07:30N 46°26' W 002°16'1 2.3
2017-Nov-12 06:59N 46°27' W 002°15'2 3.1
2017-Nov-12 06:27N 46°29' W 002°16'1 3.3
2017-Nov-12 06:00N 46°30' W 002°17'2 3.0
2017-Nov-12 05:22N 46°29' W 002°20'0 0.2
2017-Nov-12 04:05N 46°29' W 002°20'0 3.2
2017-Nov-12 04:01N 46°29' W 002°20'1 2.3
2017-Nov-12 03:31N 46°30' W 002°18'1 2.4
2017-Nov-12 03:00N 46°29' W 002°17'2 2.5
2017-Nov-12 02:10N 46°28' W 002°15'1 2.5
2017-Nov-12 01:51N 46°27' W 002°15'2 2.1
2017-Nov-12 00:53N 46°26' W 002°17'4 3.2
2017-Nov-11 23:40N 46°29' W 002°21'1 3.2
2017-Nov-11 23:29N 46°30' W 002°21'1 2.3
2017-Nov-11 22:57N 46°31' W 002°19'1 2.2
2017-Nov-11 22:23N 46°30' W 002°18'1 2.4
2017-Nov-11 22:01N 46°29' W 002°17'2 2.3
2017-Nov-11 21:17N 46°28' W 002°15'1 2.2
2017-Nov-11 21:00N 46°28' W 002°15'1 2.2
2017-Nov-11 20:30N 46°27' W 002°14'1 3.0
2017-Nov-11 20:00N 46°27' W 002°17'2 3.0
2017-Nov-11 19:28N 46°28' W 002°19'2 3.2
2017-Nov-11 18:58N 46°29' W 002°20'2 2.6
2017-Nov-11 18:12N 46°31' W 002°21'1 2.2
2017-Nov-11 17:47N 46°31' W 002°19'1 2.1
2017-Nov-11 17:29N 46°30' W 002°18'1 2.4
2017-Nov-11 17:00N 46°30' W 002°17'2 2.3
2017-Nov-11 16:21N 46°28' W 002°16'1 2.2
2017-Nov-11 15:57N 46°28' W 002°15'1 1.7
2017-Nov-11 15:28N 46°27' W 002°14'1 2.5
2017-Nov-11 15:00N 46°27' W 002°15'2 3.1
2017-Nov-11 14:22N 46°27' W 002°18'2 3.1
2017-Nov-11 13:53N 46°28' W 002°20'2 2.4
2017-Nov-11 12:54N 46°31' W 002°20'1 2.6
2017-Nov-11 12:29N 46°30' W 002°19'1 2.5
2017-Nov-11 11:56N 46°30' W 002°17'1 2.4
2017-Nov-11 11:30N 46°29' W 002°16'1 2.1
2017-Nov-11 10:56N 46°28' W 002°15'1 2.3
2017-Nov-11 10:28N 46°27' W 002°14'1 2.5
2017-Nov-11 10:00N 46°27' W 002°16'2 3.1
2017-Nov-11 09:27N 46°27' W 002°18'3 2.1
2017-Nov-11 07:51N 46°31' W 002°20'1 2.2
2017-Nov-11 07:25N 46°30' W 002°18'1 2.6
2017-Nov-11 07:01N 46°29' W 002°18'3 1.1
2017-Nov-11 04:06N 46°32' W 002°20'3 2.5
2017-Nov-11 03:06N 46°30' W 002°18'0 2.6
2017-Nov-11 02:59N 46°30' W 002°18'1 2.7
2017-Nov-11 02:30N 46°29' W 002°17'2 1.7
2017-Nov-11 01:26N 46°28' W 002°18'1 3.1
2017-Nov-11 00:59N 46°29' W 002°20'2 0.8
2017-Nov-10 22:36N 46°31' W 002°18'0 2.6
2017-Nov-10 22:30N 46°30' W 002°18'1 2.5
2017-Nov-10 22:00N 46°29' W 002°17'2 0.5
2017-Nov-10 18:17N 46°31' W 002°18'1 2.7
2017-Nov-10 17:59N 46°30' W 002°18'2 0.9
2017-Nov-10 15:52N 46°29' W 002°20'2 1.2
2017-Nov-10 13:56N 46°31' W 002°18'1 2.6
2017-Nov-10 13:28N 46°30' W 002°17'1 2.3
2017-Nov-10 13:00N 46°29' W 002°16'1 2.1
2017-Nov-10 12:28N 46°28' W 002°15'1 2.7
2017-Nov-10 12:00N 46°29' W 002°14'2 3.0
2017-Nov-10 11:30N 46°31' W 002°14'2 1.1
2017-Nov-10 09:37N 46°33' W 002°13'0 2.8
2017-Nov-10 09:27N 46°32' W 002°12'1 3.0
2017-Nov-10 09:00N 46°32' W 002°11'2 3.5
2017-Nov-10 08:30N 46°33' W 002°11'2 3.0
2017-Nov-10 07:58N 46°35' W 002°13'1 1.3
2017-Nov-10 07:05N 46°34' W 002°13'0 2.9
2017-Nov-10 06:57N 46°33' W 002°13'1 2.9
2017-Nov-10 06:30N 46°32' W 002°12'1 2.7
2017-Nov-10 06:00N 46°31' W 002°11'1 2.8
2017-Nov-10 05:30N 46°31' W 002°09'1 2.8
2017-Nov-10 05:00N 46°30' W 002°07'2 4.2
2017-Nov-10 04:30N 46°30' W 002°04'4 8.9
2017-Nov-10 04:00N 46°28' W 001°58'4 8.9
2017-Nov-10 03:30N 46°28' W 001°52'3 6.1
2017-Nov-10 03:00N 46°30' W 001°48'  

Dump ship's entire track history